TimeEDT,TemperatureF,Dew PointF,Humidity,Sea Level PressureIn,VisibilityMPH,Wind Direction,Wind SpeedMPH,Gust SpeedMPH,PrecipitationIn,Events,Conditions,WindDirDegrees,DateUTC
12:18 AM,54.0,53.1,97,29.97,5.0,ESE,3.5,-,N/A,,Overcast,110,2013-05-08 04:18:00
12:39 AM,54.0,53.1,97,29.97,4.0,Calm,Calm,-,N/A,,Overcast,0,2013-05-08 04:39:00
12:53 AM,54.0,53.1,97,29.92,4.0,Calm,Calm,-,N/A,,Overcast,0,2013-05-08 04:53:00
1:03 AM,54.0,53.1,97,29.96,4.0,Calm,Calm,-,N/A,,Overcast,0,2013-05-08 05:03:00
1:11 AM,54.0,53.1,97,29.96,4.0,Calm,Calm,-,N/A,,Overcast,0,2013-05-08 05:11:00
1:53 AM,54.0,52.0,93,29.91,3.0,Calm,Calm,-,N/A,,Overcast,0,2013-05-08 05:53:00
1:57 AM,54.0,52.0,93,29.95,2.0,Calm,Calm,-,N/A,,Overcast,0,2013-05-08 05:57:00
2:05 AM,54.0,52.0,93,29.94,3.0,Calm,Calm,-,N/A,,Mostly Cloudy,0,2013-05-08 06:05:00
2:31 AM,54.0,53.1,97,29.94,4.0,Calm,Calm,-,N/A,,Mostly Cloudy,0,2013-05-08 06:31:00
2:53 AM,54.0,53.1,97,29.89,5.0,Calm,Calm,-,N/A,,Overcast,0,2013-05-08 06:53:00
3:53 AM,54.0,53.1,97,29.89,10.0,South,3.5,-,N/A,,Overcast,190,2013-05-08 07:53:00
4:53 AM,53.1,52.0,96,29.90,7.0,SW,4.6,-,N/A,,Overcast,220,2013-05-08 08:53:00
5:22 AM,54.0,52.0,93,29.94,8.0,SSW,3.5,-,N/A,,Overcast,210,2013-05-08 09:22:00
5:53 AM,54.0,53.1,97,29.91,7.0,SW,5.8,-,N/A,,Overcast,220,2013-05-08 09:53:00
6:53 AM,55.0,53.1,93,29.92,3.0,WSW,4.6,-,N/A,,Overcast,250,2013-05-08 10:53:00
7:53 AM,55.9,53.1,90,29.94,5.0,WSW,3.5,-,N/A,,Overcast,250,2013-05-08 11:53:00
8:53 AM,55.9,54.0,93,29.95,5.0,SSW,5.8,-,N/A,,Overcast,210,2013-05-08 12:53:00
9:51 AM,57.2,55.4,94,30.00,10.0,SW,9.2,-,N/A,,Overcast,220,2013-05-08 13:51:00
9:53 AM,57.9,55.0,90,29.96,10.0,SW,10.4,-,N/A,,Overcast,220,2013-05-08 13:53:00
10:45 AM,59.0,55.0,87,30.01,10.0,WSW,8.1,-,N/A,,Overcast,250,2013-05-08 14:45:00
10:53 AM,59.0,54.0,83,29.96,10.0,WSW,9.2,-,N/A,,Overcast,250,2013-05-08 14:53:00
11:18 AM,62.1,55.9,80,30.01,10.0,SW,10.4,-,N/A,,Overcast,220,2013-05-08 15:18:00
11:53 AM,61.0,54.0,78,29.96,10.0,SW,13.8,-,N/A,,Overcast,230,2013-05-08 15:53:00
12:53 PM,64.0,55.0,73,29.96,10.0,WSW,11.5,-,N/A,,Mostly Cloudy,240,2013-05-08 16:53:00
1:53 PM,64.0,54.0,70,29.95,10.0,WSW,15.0,-,N/A,,Overcast,240,2013-05-08 17:53:00
2:53 PM,66.0,54.0,65,29.94,10.0,West,8.1,-,N/A,,Overcast,280,2013-05-08 18:53:00
3:53 PM,64.9,55.0,70,29.94,10.0,West,9.2,-,0.01,,Overcast,260,2013-05-08 19:53:00
4:53 PM,66.0,52.0,60,29.94,10.0,West,16.1,-,N/A,,Overcast,280,2013-05-08 20:53:00
5:53 PM,64.0,53.1,67,29.96,10.0,WNW,9.2,-,N/A,,Overcast,290,2013-05-08 21:53:00
6:53 PM,64.0,54.0,70,29.96,10.0,WNW,4.6,-,0.00,,Mostly Cloudy,290,2013-05-08 22:53:00
7:53 PM,61.0,55.9,83,29.98,10.0,East,3.5,-,0.00,,Overcast,100,2013-05-08 23:53:00
8:53 PM,60.1,55.9,86,30.00,10.0,Calm,Calm,-,0.00,,Mostly Cloudy,0,2013-05-09 00:53:00
9:53 PM,57.9,55.9,93,30.01,10.0,WSW,4.6,-,0.00,,Mostly Cloudy,250,2013-05-09 01:53:00
10:53 PM,55.9,54.0,93,30.02,10.0,Calm,Calm,-,N/A,,Partly Cloudy,0,2013-05-09 02:53:00
11:53 PM,55.0,53.1,93,30.02,7.0,Calm,Calm,-,N/A,,Partly Cloudy,0,2013-05-09 03:53:00